Raymond, Georgia
Current Conditions -  °F | °C
As of 12:55 AM on Tuesday 27 Jan 2015 (Local Time) from KCCO Reporting Station
Clear Clear  
Wind Chill: -1°   Ceiling: Unl
Heat Index:   Visibility: 10mi
Dew Point: -1°   Wind: 5mph
Humidity: 90%   Direction: 300°WNW
Pressure: 29.93"   Gusts: NA
Location:  33.3877°N, 84.8596°W
Report Text: KCCO 270555Z AUTO 30004KT 10SM CLR 01/00 A2993 RMK AO2 T00101005 10030 20009 400750009
Loading
Personal Weather Stations






























Interactive Weather Map New forecast layout! Learn more

10-Day Weather Forecast

Advertisements
Track Severe Weather on mobile